createdAt,value
2017-07-31T00:00:10.160Z,20.14
2017-07-31T00:02:37.942Z,20.10
2017-07-31T00:05:05.536Z,20.34
2017-07-31T00:07:33.111Z,20.46
2017-07-31T00:10:00.736Z,20.52
2017-07-31T00:12:28.299Z,20.54
2017-07-31T00:14:55.887Z,20.56
2017-07-31T00:17:23.511Z,20.53
2017-07-31T00:19:51.117Z,20.44
2017-07-31T00:22:18.718Z,20.36
2017-07-31T00:24:46.291Z,20.32
2017-07-31T00:27:13.977Z,20.30
2017-07-31T00:29:41.583Z,20.30
2017-07-31T00:32:09.199Z,20.28
2017-07-31T00:34:36.832Z,20.28
2017-07-31T00:37:04.487Z,20.27
2017-07-31T00:39:32.085Z,20.21
2017-07-31T00:41:59.694Z,20.18
2017-07-31T00:44:27.271Z,20.16
2017-07-31T00:46:54.897Z,20.10
2017-07-31T00:49:22.501Z,20.06
2017-07-31T00:51:50.129Z,19.99
2017-07-31T00:54:17.706Z,19.92
2017-07-31T00:56:45.345Z,19.85
2017-07-31T00:59:12.910Z,19.81
2017-07-31T01:01:40.515Z,19.80
2017-07-31T01:04:08.106Z,19.82
2017-07-31T01:06:35.698Z,19.81
2017-07-31T01:09:03.305Z,19.84
2017-07-31T01:11:31.056Z,19.88
2017-07-31T01:13:58.662Z,19.86
2017-07-31T01:16:26.441Z,19.84
2017-07-31T01:18:54.034Z,19.76
2017-07-31T01:21:22.472Z,19.68
2017-07-31T01:23:50.068Z,19.64
2017-07-31T01:26:17.672Z,19.58
2017-07-31T01:28:45.247Z,19.54
2017-07-31T01:31:13.040Z,19.54
2017-07-31T01:33:40.652Z,19.46
2017-07-31T01:36:08.262Z,19.41
2017-07-31T01:38:35.850Z,19.37
2017-07-31T01:41:03.773Z,19.40
2017-07-31T01:43:31.337Z,19.43
2017-07-31T01:45:59.000Z,19.45
2017-07-31T01:48:26.587Z,19.44
2017-07-31T01:50:54.207Z,19.46
2017-07-31T01:53:21.791Z,19.47
2017-07-31T01:55:49.360Z,19.48
2017-07-31T01:58:16.960Z,19.50
2017-07-31T02:00:44.562Z,19.49
2017-07-31T02:03:12.202Z,19.49
2017-07-31T02:05:39.787Z,19.46
2017-07-31T02:08:07.411Z,19.38
2017-07-31T02:10:35.009Z,19.37
2017-07-31T02:13:02.611Z,19.35
2017-07-31T02:15:30.200Z,19.30
2017-07-31T02:17:57.902Z,19.27
2017-07-31T02:20:25.849Z,19.21
2017-07-31T02:22:53.533Z,19.16
2017-07-31T02:25:21.124Z,19.11
2017-07-31T02:27:48.728Z,19.10
2017-07-31T02:30:16.327Z,19.09
2017-07-31T02:32:44.025Z,19.08
2017-07-31T02:35:11.600Z,19.10
2017-07-31T02:37:39.259Z,19.10
2017-07-31T02:40:06.827Z,19.10
2017-07-31T02:42:34.427Z,19.11
2017-07-31T02:45:02.011Z,19.08
2017-07-31T02:47:29.629Z,19.03
2017-07-31T02:49:57.242Z,19.02
2017-07-31T02:52:24.844Z,19.04
2017-07-31T02:54:52.465Z,19.05
2017-07-31T02:57:20.095Z,19.03
2017-07-31T02:59:47.685Z,19.01
2017-07-31T03:02:15.291Z,19.01
2017-07-31T03:04:42.894Z,19.00
2017-07-31T03:07:10.513Z,19.01
2017-07-31T03:09:38.186Z,19.02
2017-07-31T03:12:05.781Z,19.04
2017-07-31T03:14:33.392Z,19.02
2017-07-31T03:17:00.978Z,19.03
2017-07-31T03:19:28.588Z,19.03
2017-07-31T03:21:56.189Z,18.99
2017-07-31T03:24:23.806Z,18.96
2017-07-31T03:26:51.436Z,18.95
2017-07-31T03:29:19.112Z,18.95
2017-07-31T03:31:46.720Z,18.95
2017-07-31T03:34:14.394Z,18.96
2017-07-31T03:36:42.073Z,18.92
2017-07-31T03:39:09.707Z,18.87
2017-07-31T03:41:37.300Z,18.83
2017-07-31T03:44:04.910Z,18.76
2017-07-31T03:46:32.702Z,18.74
2017-07-31T03:49:00.710Z,18.74
2017-07-31T03:51:28.295Z,18.73
2017-07-31T03:53:55.976Z,18.71
2017-07-31T03:56:23.547Z,18.69
2017-07-31T03:58:51.268Z,18.70
2017-07-31T04:01:18.850Z,18.69
2017-07-31T04:03:46.615Z,18.69
2017-07-31T04:06:14.273Z,18.69
2017-07-31T04:08:41.891Z,18.69
2017-07-31T04:11:09.482Z,18.67
2017-07-31T04:13:37.089Z,18.68
2017-07-31T04:16:04.718Z,18.69
2017-07-31T04:18:32.321Z,18.67
2017-07-31T04:20:59.930Z,18.68
2017-07-31T04:23:27.543Z,18.67
2017-07-31T04:25:55.120Z,18.70
2017-07-31T04:28:22.767Z,18.70
2017-07-31T04:30:50.368Z,18.71
2017-07-31T04:33:17.973Z,18.71
2017-07-31T04:35:45.567Z,18.72
2017-07-31T04:38:13.547Z,18.72
2017-07-31T04:40:41.147Z,18.73
2017-07-31T04:43:08.750Z,18.75
2017-07-31T04:45:36.381Z,18.75
2017-07-31T04:48:03.974Z,18.78
2017-07-31T04:50:31.555Z,18.81
2017-07-31T04:52:59.127Z,18.83
2017-07-31T04:55:26.749Z,18.86
2017-07-31T04:57:54.335Z,18.87
2017-07-31T05:00:21.977Z,18.92
2017-07-31T05:02:49.595Z,18.92
2017-07-31T05:05:17.200Z,18.93
2017-07-31T05:07:44.792Z,18.94
2017-07-31T05:10:12.398Z,18.94
2017-07-31T05:12:40.024Z,18.98
2017-07-31T05:15:07.825Z,18.99
2017-07-31T05:17:35.432Z,19.01
2017-07-31T05:20:03.049Z,19.04
2017-07-31T05:22:30.677Z,19.08
2017-07-31T05:24:58.333Z,19.08
2017-07-31T05:27:25.946Z,19.13
2017-07-31T05:29:53.580Z,19.15
2017-07-31T05:32:21.241Z,19.21
2017-07-31T05:34:48.883Z,19.27
2017-07-31T05:37:16.496Z,19.32
2017-07-31T05:39:44.187Z,19.37
2017-07-31T05:42:11.788Z,19.37
2017-07-31T05:44:39.397Z,19.38
2017-07-31T05:47:06.989Z,19.40
2017-07-31T05:49:34.711Z,19.41
2017-07-31T05:52:02.387Z,19.44
2017-07-31T05:54:30.005Z,19.49
2017-07-31T05:56:57.782Z,19.53
2017-07-31T05:59:25.420Z,19.59
2017-07-31T06:01:53.020Z,19.63
2017-07-31T06:04:20.657Z,19.70
2017-07-31T06:06:48.278Z,19.78
2017-07-31T06:09:15.893Z,19.84
2017-07-31T06:11:43.506Z,19.89
2017-07-31T06:14:11.088Z,19.89
2017-07-31T06:16:38.708Z,19.92
2017-07-31T06:19:06.292Z,19.97
2017-07-31T06:21:33.913Z,19.99
2017-07-31T06:24:01.519Z,20.03
2017-07-31T06:26:29.143Z,20.07
2017-07-31T06:28:56.759Z,20.10
2017-07-31T06:31:24.406Z,20.11
2017-07-31T06:33:52.027Z,20.19
2017-07-31T06:36:19.619Z,20.25
2017-07-31T06:38:47.214Z,20.34
2017-07-31T06:41:14.912Z,20.45
2017-07-31T06:43:42.502Z,20.53
2017-07-31T06:46:10.121Z,20.58
2017-07-31T06:48:37.751Z,20.63
2017-07-31T06:51:05.368Z,20.71
2017-07-31T06:53:33.146Z,20.72
2017-07-31T06:56:00.754Z,20.81
2017-07-31T06:58:28.349Z,20.89
2017-07-31T07:00:55.973Z,20.98
2017-07-31T07:03:23.570Z,21.07
2017-07-31T07:05:51.173Z,21.17
2017-07-31T07:08:18.770Z,21.26
2017-07-31T07:10:46.389Z,21.33
2017-07-31T07:13:14.029Z,21.41
2017-07-31T07:15:41.627Z,21.51
2017-07-31T07:18:09.228Z,21.57
2017-07-31T07:20:36.907Z,21.64
2017-07-31T07:23:10.072Z,21.79
2017-07-31T07:25:37.699Z,21.93
2017-07-31T07:28:05.297Z,22.05
2017-07-31T07:30:33.036Z,22.15
2017-07-31T07:33:00.627Z,22.23
2017-07-31T07:35:28.259Z,22.32
2017-07-31T07:37:55.884Z,22.42
2017-07-31T07:40:23.468Z,22.47
2017-07-31T07:42:51.103Z,22.49
2017-07-31T07:45:18.714Z,22.52
2017-07-31T07:47:46.318Z,22.55
2017-07-31T07:50:13.940Z,22.54
2017-07-31T07:52:41.558Z,22.54
2017-07-31T07:55:09.173Z,22.60
2017-07-31T07:57:36.797Z,22.67
2017-07-31T08:00:04.397Z,22.69
2017-07-31T08:02:31.995Z,22.77
2017-07-31T08:04:59.622Z,22.82
2017-07-31T08:07:27.320Z,22.89
2017-07-31T08:09:54.917Z,22.93
2017-07-31T08:12:22.555Z,22.91
2017-07-31T08:14:50.181Z,22.94
2017-07-31T08:17:17.911Z,23.01
2017-07-31T08:19:45.631Z,23.08
2017-07-31T08:22:13.401Z,23.15
2017-07-31T08:24:41.000Z,23.16
2017-07-31T08:27:08.615Z,23.25
2017-07-31T08:29:36.230Z,23.31
2017-07-31T08:32:03.814Z,23.34
2017-07-31T08:34:31.444Z,23.40
2017-07-31T08:36:59.054Z,23.54
2017-07-31T08:39:26.660Z,23.70
2017-07-31T08:41:54.289Z,23.75
2017-07-31T08:44:21.901Z,23.83
2017-07-31T08:46:49.490Z,23.88
2017-07-31T08:49:17.073Z,23.93
2017-07-31T08:51:44.783Z,23.95
2017-07-31T08:54:12.390Z,24.05
2017-07-31T08:56:40.399Z,24.07
2017-07-31T08:59:08.007Z,24.12
2017-07-31T09:01:35.618Z,24.15
2017-07-31T09:04:03.206Z,24.08
2017-07-31T09:06:30.796Z,24.14
2017-07-31T09:08:58.438Z,24.30
2017-07-31T09:11:26.022Z,24.37
2017-07-31T09:13:53.680Z,24.44
2017-07-31T09:16:21.259Z,24.51
2017-07-31T09:18:48.880Z,24.54
2017-07-31T09:21:16.483Z,24.59
2017-07-31T09:23:44.102Z,24.66
2017-07-31T09:26:11.693Z,24.72
2017-07-31T09:28:39.323Z,24.81
2017-07-31T09:31:06.929Z,24.90
2017-07-31T09:33:34.681Z,24.99
2017-07-31T09:36:02.311Z,25.03
2017-07-31T09:38:30.018Z,25.06
2017-07-31T09:40:57.667Z,25.18
2017-07-31T09:43:25.289Z,25.28
2017-07-31T09:45:52.903Z,25.36
2017-07-31T09:48:20.531Z,25.40
2017-07-31T09:50:48.219Z,25.43
2017-07-31T09:53:15.996Z,25.45
2017-07-31T09:55:43.788Z,25.55
2017-07-31T09:58:11.398Z,25.69
2017-07-31T10:00:38.980Z,25.77
2017-07-31T10:03:06.646Z,25.83
2017-07-31T10:05:34.242Z,25.97
2017-07-31T10:08:01.855Z,26.06
2017-07-31T10:10:29.513Z,26.10
2017-07-31T10:12:57.128Z,26.14
2017-07-31T10:15:24.733Z,26.20
2017-07-31T10:17:52.390Z,26.32
2017-07-31T10:20:19.980Z,26.33
2017-07-31T10:22:47.605Z,26.33
2017-07-31T10:25:15.235Z,26.42
2017-07-31T10:27:42.927Z,26.53
2017-07-31T10:30:10.540Z,26.59
2017-07-31T10:32:38.545Z,26.71
2017-07-31T10:35:06.150Z,26.78
2017-07-31T10:37:34.865Z,26.87
2017-07-31T10:40:02.600Z,26.99
2017-07-31T10:42:30.205Z,27.15
2017-07-31T10:44:57.804Z,27.35
2017-07-31T10:47:25.430Z,27.58
2017-07-31T10:49:53.073Z,27.68
2017-07-31T10:52:20.802Z,27.78
2017-07-31T10:54:48.429Z,27.83
2017-07-31T10:57:16.021Z,27.89
2017-07-31T10:59:43.642Z,27.88
2017-07-31T11:02:11.280Z,27.96
2017-07-31T11:04:38.930Z,28.08
2017-07-31T11:07:06.519Z,28.19
2017-07-31T11:09:34.244Z,28.37
2017-07-31T11:12:01.900Z,28.57
2017-07-31T11:14:29.769Z,28.73
2017-07-31T11:16:57.464Z,28.77
2017-07-31T11:19:25.303Z,28.67
2017-07-31T11:21:52.876Z,28.61
2017-07-31T11:24:20.487Z,28.62
2017-07-31T11:26:48.082Z,28.59
2017-07-31T11:29:15.697Z,28.51
2017-07-31T11:31:43.286Z,28.44
2017-07-31T11:34:10.917Z,28.45
2017-07-31T11:36:38.550Z,28.55
2017-07-31T11:39:06.172Z,28.66
2017-07-31T11:41:33.791Z,28.71
2017-07-31T11:44:01.421Z,28.80
2017-07-31T11:46:29.011Z,28.87
2017-07-31T11:48:56.714Z,28.94
2017-07-31T11:51:24.286Z,29.02
2017-07-31T11:53:51.900Z,29.08
2017-07-31T11:56:19.699Z,29.16
2017-07-31T11:58:47.323Z,29.19
2017-07-31T12:01:14.980Z,29.22
2017-07-31T12:03:42.600Z,29.15
2017-07-31T12:06:10.213Z,29.15
2017-07-31T12:08:37.823Z,29.30
2017-07-31T12:11:05.459Z,29.41
2017-07-31T12:13:33.531Z,29.32
2017-07-31T12:16:01.169Z,29.20
2017-07-31T12:18:28.760Z,29.10
2017-07-31T12:20:56.390Z,29.05
2017-07-31T12:23:23.987Z,29.20
2017-07-31T12:25:51.609Z,29.39
2017-07-31T12:28:19.191Z,29.36
2017-07-31T12:30:46.826Z,29.36
2017-07-31T12:33:14.456Z,29.42
2017-07-31T12:35:42.198Z,29.54
2017-07-31T12:38:09.814Z,29.67
2017-07-31T12:40:37.459Z,29.77
2017-07-31T12:43:05.291Z,29.80
2017-07-31T12:45:32.895Z,30.00
2017-07-31T12:48:00.500Z,30.12
2017-07-31T12:50:28.118Z,30.26
2017-07-31T12:52:55.709Z,30.28
2017-07-31T12:55:23.362Z,30.13
2017-07-31T12:57:50.954Z,30.17
2017-07-31T13:00:18.601Z,30.27
2017-07-31T13:02:46.170Z,30.34
2017-07-31T13:05:13.801Z,30.34
2017-07-31T13:07:41.417Z,30.28
2017-07-31T13:10:09.034Z,30.23
2017-07-31T13:12:36.618Z,30.19
2017-07-31T13:15:04.239Z,30.20
2017-07-31T13:17:31.826Z,30.20
2017-07-31T13:19:59.431Z,30.18
2017-07-31T13:22:27.058Z,30.26
2017-07-31T13:24:54.686Z,30.41
2017-07-31T13:27:22.309Z,30.47
2017-07-31T13:29:50.330Z,30.45
2017-07-31T13:32:18.059Z,30.53
2017-07-31T13:34:45.687Z,30.69
2017-07-31T13:37:13.352Z,30.76
2017-07-31T13:39:41.047Z,30.76
2017-07-31T13:42:08.669Z,30.82
2017-07-31T13:44:36.272Z,30.94
2017-07-31T13:47:03.908Z,31.08
2017-07-31T13:49:31.535Z,31.21
2017-07-31T13:51:59.166Z,31.28
2017-07-31T13:54:27.980Z,31.43
2017-07-31T13:56:55.603Z,31.60
2017-07-31T13:59:23.236Z,31.63
2017-07-31T14:01:50.854Z,31.54
2017-07-31T14:04:18.481Z,31.60
2017-07-31T14:06:46.324Z,31.78
2017-07-31T14:09:13.923Z,32.02
2017-07-31T14:11:41.537Z,32.14
2017-07-31T14:14:09.142Z,32.38
2017-07-31T14:16:36.845Z,32.65
2017-07-31T14:19:04.440Z,33.06
2017-07-31T14:21:32.232Z,33.38
2017-07-31T14:23:59.814Z,33.41
2017-07-31T14:26:27.451Z,33.77
2017-07-31T14:28:55.062Z,33.89
2017-07-31T14:31:22.689Z,33.68
2017-07-31T14:33:50.320Z,33.81
2017-07-31T14:36:17.961Z,34.30
2017-07-31T14:38:45.573Z,33.94
2017-07-31T14:41:13.195Z,33.68
2017-07-31T14:43:40.809Z,33.24
2017-07-31T14:46:08.564Z,32.99
2017-07-31T14:48:36.160Z,32.75
2017-07-31T14:51:03.779Z,32.55
2017-07-31T14:53:31.390Z,32.43
2017-07-31T14:55:59.002Z,32.56
2017-07-31T14:58:26.599Z,32.54
2017-07-31T15:00:54.314Z,32.85
2017-07-31T15:03:21.914Z,32.68
2017-07-31T15:05:49.550Z,32.47
2017-07-31T15:08:17.258Z,32.72
2017-07-31T15:10:44.885Z,32.75
2017-07-31T15:13:12.497Z,32.68
2017-07-31T15:15:40.241Z,32.69
2017-07-31T15:18:07.856Z,32.77
2017-07-31T15:20:35.467Z,33.00
2017-07-31T15:23:03.087Z,33.56
2017-07-31T15:25:30.687Z,33.76
2017-07-31T15:27:58.320Z,33.51
2017-07-31T15:30:25.947Z,33.38
2017-07-31T15:32:53.586Z,33.76
2017-07-31T15:35:21.212Z,34.07
2017-07-31T15:37:49.001Z,33.73
2017-07-31T15:40:16.594Z,33.45
2017-07-31T15:42:44.238Z,33.12
2017-07-31T15:45:11.845Z,32.78
2017-07-31T15:47:39.617Z,32.68
2017-07-31T15:50:07.207Z,32.55
2017-07-31T15:52:34.881Z,32.60
2017-07-31T15:55:02.497Z,32.98
2017-07-31T15:57:30.110Z,32.83
2017-07-31T16:02:31.501Z,32.90
2017-07-31T16:04:59.141Z,32.78
2017-07-31T16:07:26.797Z,32.58
2017-07-31T16:09:54.525Z,32.30
2017-07-31T16:12:22.158Z,32.17
2017-07-31T16:14:49.767Z,31.94
2017-07-31T16:17:17.566Z,31.68
2017-07-31T16:19:45.167Z,31.45
2017-07-31T16:22:12.763Z,31.27
2017-07-31T16:24:40.389Z,31.13
2017-07-31T16:27:07.997Z,30.99
2017-07-31T16:29:35.850Z,30.87
2017-07-31T16:32:03.466Z,30.76
2017-07-31T16:34:31.108Z,30.63
2017-07-31T16:36:58.706Z,30.51
2017-07-31T16:39:26.391Z,30.40
2017-07-31T16:42:08.864Z,30.28
2017-07-31T16:44:48.397Z,30.15
2017-07-31T16:47:27.782Z,30.03
2017-07-31T16:49:55.409Z,29.91
2017-07-31T16:52:23.264Z,29.83
2017-07-31T16:54:50.910Z,29.76
2017-07-31T16:57:18.597Z,29.67
2017-07-31T16:59:46.227Z,29.59
2017-07-31T17:02:13.851Z,29.51
2017-07-31T17:04:42.751Z,29.45
2017-07-31T17:07:10.393Z,29.40
2017-07-31T17:09:38.044Z,29.39
2017-07-31T17:12:05.660Z,29.36
2017-07-31T17:14:33.301Z,29.29
2017-07-31T17:17:00.906Z,29.24
2017-07-31T17:19:28.543Z,29.14
2017-07-31T17:21:56.143Z,29.05
2017-07-31T17:24:24.120Z,28.97
2017-07-31T17:26:51.792Z,28.91
2017-07-31T17:29:19.409Z,28.87
2017-07-31T17:31:47.026Z,28.82
2017-07-31T17:34:14.640Z,28.78
2017-07-31T17:36:42.312Z,28.71
2017-07-31T17:39:09.920Z,28.65
2017-07-31T17:41:37.840Z,28.62
2017-07-31T17:44:05.555Z,28.55
2017-07-31T17:46:33.157Z,28.53
2017-07-31T17:49:00.798Z,28.46
2017-07-31T17:51:28.401Z,28.37
2017-07-31T17:53:56.052Z,28.33
2017-07-31T17:56:23.688Z,28.33
2017-07-31T17:58:51.334Z,28.27
2017-07-31T18:01:19.077Z,28.24
2017-07-31T18:03:46.976Z,28.23
2017-07-31T18:06:14.571Z,28.21
2017-07-31T18:08:42.175Z,28.21
2017-07-31T18:11:09.867Z,28.13
2017-07-31T18:13:37.588Z,28.04
2017-07-31T18:16:05.196Z,27.99
2017-07-31T18:18:32.934Z,27.93
2017-07-31T18:21:00.560Z,27.87
2017-07-31T18:23:28.344Z,27.83
2017-07-31T18:25:56.371Z,27.76
2017-07-31T18:28:23.953Z,27.70
2017-07-31T18:30:51.785Z,27.64
2017-07-31T18:33:19.418Z,27.59
2017-07-31T18:35:47.060Z,27.55
2017-07-31T18:38:14.753Z,27.48
2017-07-31T18:40:42.349Z,27.39
2017-07-31T18:43:10.076Z,27.32
2017-07-31T18:45:37.705Z,27.23
2017-07-31T18:48:05.320Z,27.14
2017-07-31T18:50:33.134Z,27.07
2017-07-31T18:53:00.777Z,27.00
2017-07-31T18:55:28.430Z,26.95
2017-07-31T18:57:56.829Z,26.89
2017-07-31T19:00:24.442Z,26.82
2017-07-31T19:02:52.065Z,26.76
2017-07-31T19:05:19.774Z,26.71
2017-07-31T19:07:47.370Z,26.65
2017-07-31T19:10:14.995Z,26.59
2017-07-31T19:12:42.724Z,26.53
2017-07-31T19:15:10.316Z,26.46
2017-07-31T19:17:38.074Z,26.39
2017-07-31T19:20:05.664Z,26.30
2017-07-31T19:22:33.313Z,26.22
2017-07-31T19:25:00.928Z,26.13
2017-07-31T19:27:28.587Z,26.06
2017-07-31T19:29:56.638Z,26.02
2017-07-31T19:32:24.271Z,25.96
2017-07-31T19:34:52.078Z,25.91
2017-07-31T19:37:19.754Z,25.83
2017-07-31T19:39:47.371Z,25.77
2017-07-31T19:42:15.120Z,25.70
2017-07-31T19:44:42.775Z,25.65
2017-07-31T19:47:10.415Z,25.61
2017-07-31T19:49:38.042Z,25.55
2017-07-31T19:52:05.673Z,25.48
2017-07-31T19:54:33.279Z,25.43
2017-07-31T19:57:00.921Z,25.38
2017-07-31T19:59:28.507Z,25.32
2017-07-31T20:01:56.138Z,25.26
2017-07-31T20:04:23.797Z,25.18
2017-07-31T20:06:51.639Z,25.12
2017-07-31T20:09:19.261Z,25.07
2017-07-31T20:11:46.897Z,25.03
2017-07-31T20:14:14.499Z,25.00
2017-07-31T20:16:42.137Z,24.97
2017-07-31T20:19:09.760Z,24.94
2017-07-31T20:21:37.402Z,24.89
2017-07-31T20:24:05.133Z,24.85
2017-07-31T20:26:32.772Z,24.77
2017-07-31T20:29:00.375Z,24.71
2017-07-31T20:31:28.118Z,24.66
2017-07-31T20:33:55.703Z,24.61
2017-07-31T20:36:23.308Z,24.60
2017-07-31T20:38:51.391Z,24.55
2017-07-31T20:41:19.003Z,24.50
2017-07-31T20:43:46.623Z,24.45
2017-07-31T20:46:14.226Z,24.39
2017-07-31T20:48:41.957Z,24.36
2017-07-31T20:51:09.568Z,24.34
2017-07-31T20:53:37.228Z,24.32
2017-07-31T20:56:04.855Z,24.28
2017-07-31T20:58:33.158Z,24.24
2017-07-31T21:01:00.793Z,24.19
2017-07-31T21:03:28.804Z,24.14
2017-07-31T21:05:56.423Z,24.12
2017-07-31T21:08:24.089Z,24.06
2017-07-31T21:10:51.674Z,24.03
2017-07-31T21:13:19.317Z,23.98
2017-07-31T21:15:46.938Z,23.98
2017-07-31T21:18:14.561Z,23.96
2017-07-31T21:20:42.167Z,23.93
2017-07-31T21:23:09.804Z,23.90
2017-07-31T21:25:37.413Z,23.85
2017-07-31T21:28:05.242Z,23.83
2017-07-31T21:30:32.876Z,23.82
2017-07-31T21:33:00.672Z,23.81
2017-07-31T21:35:28.304Z,23.80
2017-07-31T21:37:55.920Z,23.79
2017-07-31T21:40:23.590Z,23.78
2017-07-31T21:42:51.199Z,23.75
2017-07-31T21:45:18.775Z,23.69
2017-07-31T21:47:46.484Z,23.66
2017-07-31T21:50:14.117Z,23.61
2017-07-31T21:52:41.733Z,23.56
2017-07-31T21:55:09.336Z,23.52
2017-07-31T21:57:36.971Z,23.50
2017-07-31T22:00:04.608Z,23.47
2017-07-31T22:02:32.503Z,23.44
2017-07-31T22:05:00.113Z,23.41
2017-07-31T22:07:27.705Z,23.37
2017-07-31T22:09:55.331Z,23.35
2017-07-31T22:12:22.948Z,23.33
2017-07-31T22:14:50.596Z,23.31
2017-07-31T22:17:25.418Z,23.29
2017-07-31T22:19:53.054Z,23.24
2017-07-31T22:22:20.646Z,23.19
2017-07-31T22:30:29.655Z,23.10
2017-07-31T22:32:57.324Z,23.08
2017-07-31T22:35:24.907Z,23.05
2017-07-31T22:37:52.537Z,23.02
2017-07-31T22:40:21.016Z,23.00
2017-07-31T22:42:48.659Z,22.98
2017-07-31T22:45:16.303Z,22.96
2017-07-31T22:47:43.940Z,22.93
2017-07-31T22:50:11.592Z,22.93
2017-07-31T22:52:39.221Z,22.93
2017-07-31T22:55:06.927Z,22.92
2017-07-31T22:57:34.555Z,22.91
2017-07-31T23:00:02.178Z,22.90
2017-07-31T23:02:29.768Z,22.88
2017-07-31T23:04:58.000Z,22.86
2017-07-31T23:07:25.602Z,22.85
2017-07-31T23:09:53.245Z,22.83
2017-07-31T23:12:20.965Z,22.81
2017-07-31T23:14:48.623Z,22.79
2017-07-31T23:17:17.475Z,22.77
2017-07-31T23:19:45.129Z,22.74
2017-07-31T23:22:12.729Z,22.73
2017-07-31T23:24:41.520Z,22.70
2017-07-31T23:27:09.125Z,22.70
2017-07-31T23:29:36.777Z,22.69
2017-07-31T23:32:04.540Z,22.67
2017-07-31T23:34:32.203Z,22.66
2017-07-31T23:36:59.817Z,22.63
2017-07-31T23:39:27.461Z,22.60
2017-07-31T23:41:55.086Z,22.58
2017-07-31T23:44:22.753Z,22.57
2017-07-31T23:46:50.349Z,22.56
2017-07-31T23:49:17.960Z,22.54
2017-07-31T23:51:45.568Z,22.53
2017-07-31T23:54:13.310Z,22.52
2017-07-31T23:56:40.981Z,22.52
2017-07-31T23:59:08.650Z,22.53
